createdAt,value
2023-11-16T00:05:44.855Z,8.30
2023-11-16T00:12:45.170Z,8.20
2023-11-16T00:19:45.674Z,8.20
2023-11-16T00:26:46.818Z,8.20
2023-11-16T00:33:47.565Z,8.20
2023-11-16T00:40:47.936Z,8.20
2023-11-16T00:47:48.493Z,8.20
2023-11-16T00:54:49.578Z,8.20
2023-11-16T01:01:50.465Z,8.20
2023-11-16T01:08:50.732Z,8.20
2023-11-16T01:15:52.316Z,8.10
2023-11-16T01:23:03.253Z,8.10
2023-11-16T01:30:04.367Z,8.10
2023-11-16T01:37:04.947Z,8.10
2023-11-16T01:44:05.760Z,8.20
2023-11-16T01:51:08.368Z,8.20
2023-11-16T01:58:10.891Z,8.20
2023-11-16T02:05:11.602Z,8.20
2023-11-16T02:12:11.843Z,8.30
2023-11-16T02:19:24.940Z,8.20
2023-11-16T02:26:25.341Z,8.30
2023-11-16T02:33:25.802Z,8.30
2023-11-16T02:40:27.254Z,8.30
2023-11-16T02:47:29.374Z,8.30
2023-11-16T02:54:31.361Z,8.40
2023-11-16T03:01:34.005Z,8.50
2023-11-16T03:08:34.136Z,8.40
2023-11-16T03:15:34.743Z,8.40
2023-11-16T03:22:35.347Z,8.40
2023-11-16T03:29:35.907Z,8.40
2023-11-16T03:36:36.234Z,8.40
2023-11-16T03:43:36.835Z,8.40
2023-11-16T03:50:37.421Z,8.40
2023-11-16T03:57:37.910Z,8.40
2023-11-16T04:04:38.794Z,8.40
2023-11-16T04:11:43.868Z,8.40
2023-11-16T04:18:44.055Z,8.40
2023-11-16T04:25:45.060Z,8.30
2023-11-16T04:32:46.229Z,8.40
2023-11-16T04:39:46.399Z,8.40
2023-11-16T04:46:47.363Z,8.30
2023-11-16T04:53:51.890Z,8.30
2023-11-16T05:00:52.487Z,8.30
2023-11-16T05:07:52.877Z,8.30
2023-11-16T05:14:56.276Z,8.30
2023-11-16T05:21:56.852Z,8.30
2023-11-16T05:28:57.049Z,8.30
2023-11-16T05:35:58.326Z,8.30
2023-11-16T05:42:59.432Z,8.40
2023-11-16T05:50:00.264Z,8.40
2023-11-16T05:57:00.992Z,8.40
2023-11-16T06:04:01.505Z,8.40
2023-11-16T06:11:02.751Z,8.30
2023-11-16T06:18:04.092Z,8.30
2023-11-16T06:25:05.704Z,8.30
2023-11-16T06:32:07.986Z,8.30
2023-11-16T06:39:08.838Z,8.20
2023-11-16T06:46:13.272Z,8.20
2023-11-16T06:53:16.372Z,8.20
2023-11-16T07:00:18.136Z,8.20
2023-11-16T07:07:18.712Z,8.20
2023-11-16T07:14:20.450Z,8.20
2023-11-16T07:21:20.619Z,8.20
2023-11-16T07:28:22.281Z,8.20
2023-11-16T07:35:24.627Z,8.20
2023-11-16T07:42:25.625Z,8.20
2023-11-16T07:49:26.279Z,8.20
2023-11-16T07:56:26.759Z,8.30
2023-11-16T08:03:45.762Z,8.30
2023-11-16T08:10:46.660Z,8.40
2023-11-16T08:17:49.063Z,8.40
2023-11-16T08:24:50.120Z,8.50
2023-11-16T08:31:54.238Z,8.50
2023-11-16T08:38:55.008Z,8.60
2023-11-16T08:45:56.591Z,8.70
2023-11-16T08:52:58.243Z,8.70
2023-11-16T09:00:21.256Z,8.70
2023-11-16T09:07:22.990Z,8.70
2023-11-16T09:14:25.717Z,8.80
2023-11-16T09:21:27.700Z,8.80
2023-11-16T09:28:30.177Z,8.90
2023-11-16T09:35:30.410Z,8.90
2023-11-16T09:42:34.949Z,9.00
2023-11-16T09:49:37.110Z,9.10
2023-11-16T09:56:42.635Z,9.20
2023-11-16T10:03:44.318Z,9.20
2023-11-16T10:11:07.178Z,9.30
2023-11-16T10:18:10.949Z,9.30
2023-11-16T10:25:16.082Z,9.20
2023-11-16T10:32:16.758Z,9.20
2023-11-16T10:39:19.081Z,9.20
2023-11-16T10:46:20.990Z,9.30
2023-11-16T10:53:25.137Z,9.30
2023-11-16T11:00:27.278Z,9.30
2023-11-16T11:07:29.327Z,9.30
2023-11-16T11:14:30.544Z,9.30
2023-11-16T11:21:34.070Z,9.30
2023-11-16T11:28:39.713Z,9.40
2023-11-16T11:35:48.947Z,9.40
2023-11-16T11:42:49.547Z,9.40
2023-11-16T11:49:51.188Z,9.40
2023-11-16T11:56:51.398Z,9.40
2023-11-16T12:03:56.723Z,9.50
2023-11-16T12:11:01.115Z,9.40
2023-11-16T12:18:07.619Z,9.40
2023-11-16T12:25:13.967Z,9.40
2023-11-16T12:32:15.226Z,9.40
2023-11-16T12:39:15.864Z,9.40
2023-11-16T12:46:16.641Z,9.30
2023-11-16T12:53:17.070Z,9.30
2023-11-16T13:00:19.216Z,9.30
2023-11-16T13:07:20.231Z,9.30
2023-11-16T13:14:20.495Z,9.30
2023-11-16T13:21:20.896Z,9.30
2023-11-16T13:28:21.289Z,9.30
2023-11-16T13:35:22.511Z,9.30
2023-11-16T13:42:22.815Z,9.30
2023-11-16T13:49:23.252Z,9.30
2023-11-16T13:56:23.919Z,9.40
2023-11-16T14:03:24.580Z,9.40
2023-11-16T14:10:25.710Z,9.40
2023-11-16T14:17:26.354Z,9.40
2023-11-16T14:24:31.458Z,9.40
2023-11-16T14:31:32.715Z,9.40
2023-11-16T14:38:33.131Z,9.40
2023-11-16T14:45:35.548Z,9.40
2023-11-16T14:52:36.762Z,9.30
2023-11-16T14:59:37.228Z,9.30
2023-11-16T15:06:37.972Z,9.30
2023-11-16T15:13:47.302Z,9.20
2023-11-16T15:20:55.738Z,9.20
2023-11-16T15:27:56.377Z,9.20
2023-11-16T15:34:57.187Z,9.10
2023-11-16T15:41:57.657Z,9.10
2023-11-16T15:48:59.320Z,9.00
2023-11-16T15:55:59.738Z,9.00
2023-11-16T16:03:00.696Z,9.00
2023-11-16T16:10:02.742Z,8.90
2023-11-16T16:17:03.719Z,8.90
2023-11-16T16:24:04.393Z,8.90
2023-11-16T16:31:05.020Z,8.90
2023-11-16T16:38:09.236Z,8.90
2023-11-16T16:45:10.933Z,8.80
2023-11-16T16:52:11.787Z,8.80
2023-11-16T16:59:15.038Z,8.70
2023-11-16T17:06:15.849Z,8.70
2023-11-16T17:13:16.392Z,8.70
2023-11-16T17:20:19.252Z,8.70
2023-11-16T17:27:19.616Z,8.60
2023-11-16T17:34:20.060Z,8.60
2023-11-16T17:41:21.665Z,8.60
2023-11-16T17:48:22.438Z,8.50
2023-11-16T17:55:23.453Z,8.50
2023-11-16T18:02:23.976Z,8.50
2023-11-16T18:09:24.847Z,8.50
2023-11-16T18:16:25.872Z,8.50
2023-11-16T18:23:26.563Z,8.40
2023-11-16T18:30:27.366Z,8.40
2023-11-16T18:37:27.797Z,8.30
2023-11-16T18:44:28.229Z,8.20
2023-11-16T18:51:29.011Z,8.20
2023-11-16T18:58:29.915Z,8.10
2023-11-16T19:05:30.484Z,8.10
2023-11-16T19:12:31.751Z,8.00
2023-11-16T19:19:31.975Z,8.00
2023-11-16T19:26:33.124Z,7.90
2023-11-16T19:33:33.552Z,7.80
2023-11-16T19:40:39.186Z,7.80
2023-11-16T19:47:40.363Z,7.70
2023-11-16T19:54:40.843Z,7.70
2023-11-16T20:01:41.541Z,7.70
2023-11-16T20:08:42.402Z,7.70
2023-11-16T20:15:42.926Z,7.70
2023-11-16T20:22:47.830Z,7.80
2023-11-16T20:29:48.619Z,7.80
2023-11-16T20:36:49.081Z,7.80
2023-11-16T20:43:49.869Z,7.80
2023-11-16T20:50:50.425Z,7.80
2023-11-16T20:57:50.896Z,7.80
2023-11-16T21:04:51.374Z,7.80
2023-11-16T21:11:51.745Z,7.80
2023-11-16T21:18:52.211Z,7.80
2023-11-16T21:25:52.738Z,7.80
2023-11-16T21:32:53.587Z,7.80
2023-11-16T21:39:53.949Z,7.80
2023-11-16T21:46:55.102Z,7.90
2023-11-16T21:53:55.737Z,7.90
2023-11-16T22:00:56.375Z,7.80
2023-11-16T22:07:57.059Z,7.80
2023-11-16T22:14:57.250Z,7.70
2023-11-16T22:21:57.749Z,7.70
2023-11-16T22:28:59.278Z,7.60
2023-11-16T22:35:59.634Z,7.60
2023-11-16T22:43:00.284Z,7.50
2023-11-16T22:50:00.699Z,7.40
2023-11-16T22:57:01.166Z,7.40
2023-11-16T23:04:03.654Z,7.30
2023-11-16T23:11:04.544Z,7.20
2023-11-16T23:18:05.267Z,7.10
2023-11-16T23:25:06.361Z,7.10
2023-11-16T23:32:08.049Z,7.00
2023-11-16T23:39:08.404Z,6.90
2023-11-16T23:46:09.202Z,6.80
2023-11-16T23:53:09.920Z,6.60
